createdAt,value
2022-09-04T00:00:57.135Z,6.00
2022-09-04T00:06:00.727Z,6.50
2022-09-04T00:11:18.527Z,7.20
2022-09-04T00:16:22.414Z,6.30
2022-09-04T00:21:23.975Z,6.30
2022-09-04T00:26:25.611Z,7.80
2022-09-04T00:31:27.294Z,6.60
2022-09-04T00:36:30.628Z,5.80
2022-09-04T00:41:43.313Z,6.20
2022-09-04T00:47:03.851Z,6.40
2022-09-04T00:52:27.728Z,6.10
2022-09-04T00:57:57.802Z,6.90
2022-09-04T01:08:15.868Z,6.40
2022-09-04T01:13:25.501Z,6.00
2022-09-04T01:18:38.234Z,5.20
2022-09-04T01:23:39.755Z,6.10
2022-09-04T01:28:50.484Z,5.60
2022-09-04T01:33:54.826Z,6.00
2022-09-04T01:38:57.703Z,6.30
2022-09-04T01:43:59.616Z,6.80
2022-09-04T01:49:08.534Z,6.40
2022-09-04T01:54:10.079Z,5.90
2022-09-04T01:59:19.347Z,6.60
2022-09-04T02:04:28.754Z,6.70
2022-09-04T02:09:48.768Z,6.90
2022-09-04T02:14:57.021Z,6.90
2022-09-04T02:20:08.150Z,6.90
2022-09-04T02:25:28.562Z,6.90
2022-09-04T02:30:34.315Z,7.30
2022-09-04T02:35:49.246Z,6.40
2022-09-04T02:40:59.746Z,7.50
2022-09-04T02:46:05.927Z,7.50
2022-09-04T02:51:13.977Z,7.90
2022-09-04T02:56:21.531Z,8.70
2022-09-04T03:01:27.327Z,7.50
2022-09-04T03:06:44.107Z,7.50
2022-09-04T03:11:59.588Z,8.00
2022-09-04T03:17:20.422Z,7.70
2022-09-04T03:22:26.412Z,7.70
2022-09-04T03:27:30.510Z,6.90
2022-09-04T03:32:40.125Z,7.60
2022-09-04T03:37:55.157Z,7.40
2022-09-04T03:42:56.726Z,7.30
2022-09-04T03:48:07.974Z,7.20
2022-09-04T03:53:12.415Z,7.20
2022-09-04T03:58:16.831Z,7.40
2022-09-04T04:03:24.190Z,7.30
2022-09-04T04:08:28.021Z,7.70
2022-09-04T04:13:33.356Z,5.20
2022-09-04T04:18:41.671Z,7.90
2022-09-04T04:23:56.913Z,7.30
2022-09-04T04:29:26.843Z,7.40
2022-09-04T04:34:35.527Z,8.40
2022-09-04T04:39:48.130Z,7.40
2022-09-04T04:45:22.819Z,8.40
2022-09-04T04:50:42.684Z,7.70
2022-09-04T04:56:03.939Z,7.10
2022-09-04T05:01:06.238Z,7.80
2022-09-04T05:06:20.445Z,6.40
2022-09-04T05:11:40.996Z,6.50
2022-09-04T05:16:52.283Z,6.70
2022-09-04T05:22:05.741Z,6.70
2022-09-04T05:27:30.198Z,7.80
2022-09-04T05:32:37.798Z,6.60
2022-09-04T05:37:45.160Z,6.40
2022-09-04T05:42:55.980Z,14.80
2022-09-04T05:48:33.291Z,7.80
2022-09-04T05:53:55.461Z,9.60
2022-09-04T05:59:09.093Z,7.80
2022-09-04T06:04:13.620Z,7.40
2022-09-04T06:09:31.875Z,8.40
2022-09-04T06:14:56.098Z,7.70
2022-09-04T06:20:09.176Z,6.30
2022-09-04T06:25:10.823Z,7.40
2022-09-04T06:30:13.851Z,6.40
2022-09-04T06:35:30.891Z,7.40
2022-09-04T06:40:32.671Z,6.20
2022-09-04T06:45:35.394Z,6.80
2022-09-04T06:51:07.096Z,6.00
2022-09-04T06:56:27.343Z,6.00
2022-09-04T07:01:43.637Z,5.60
2022-09-04T07:06:58.804Z,5.50
2022-09-04T07:12:10.515Z,6.10
2022-09-04T07:17:30.937Z,5.30
2022-09-04T07:22:53.872Z,5.10
2022-09-04T07:28:14.820Z,5.50
2022-09-04T07:38:29.922Z,5.10
2022-09-04T07:43:50.207Z,4.90
2022-09-04T07:49:10.225Z,5.10
2022-09-04T07:54:25.236Z,5.70
2022-09-04T07:59:26.731Z,5.50
2022-09-04T08:04:28.350Z,6.00
2022-09-04T08:09:40.088Z,6.00
2022-09-04T08:14:42.489Z,5.90
2022-09-04T08:20:03.000Z,5.60
2022-09-04T08:25:04.534Z,6.00
2022-09-04T08:30:14.354Z,6.40
2022-09-04T08:35:16.427Z,7.10
2022-09-04T08:40:38.260Z,7.40
2022-09-04T08:45:58.567Z,7.80
2022-09-04T08:51:08.331Z,8.30
2022-09-04T08:56:16.969Z,8.20
2022-09-04T09:01:32.950Z,7.60
2022-09-04T09:06:37.591Z,7.60
2022-09-04T09:11:57.829Z,7.80
2022-09-04T09:17:13.283Z,7.70
2022-09-04T09:22:29.230Z,9.10
2022-09-04T09:27:50.055Z,10.40
2022-09-04T09:33:03.525Z,11.00
2022-09-04T09:38:14.065Z,13.50
2022-09-04T09:43:31.665Z,13.20
2022-09-04T09:48:52.174Z,13.20
2022-09-04T09:54:12.526Z,14.70
2022-09-04T09:59:14.065Z,15.80
2022-09-04T10:04:25.980Z,14.60
2022-09-04T10:09:34.713Z,17.40
2022-09-04T10:14:54.832Z,18.30
2022-09-04T10:20:04.911Z,16.20
2022-09-04T10:25:25.406Z,16.30
2022-09-04T10:30:31.139Z,18.60
2022-09-04T10:35:42.084Z,16.00
2022-09-04T10:40:53.056Z,14.60
2022-09-04T10:45:54.999Z,14.30
2022-09-04T10:51:18.225Z,15.00
2022-09-04T10:56:29.015Z,11.00
2022-09-04T11:01:56.941Z,11.90
2022-09-04T11:07:01.671Z,11.20
2022-09-04T11:12:06.206Z,13.40
2022-09-04T11:17:28.479Z,11.20
2022-09-04T11:22:36.353Z,20.00
2022-09-04T11:27:58.748Z,10.70
2022-09-04T11:33:10.760Z,9.60
2022-09-04T11:38:18.827Z,10.10
2022-09-04T11:43:24.352Z,10.20
2022-09-04T11:48:32.066Z,9.30
2022-09-04T11:53:33.881Z,9.80
2022-09-04T11:59:05.604Z,8.50
2022-09-04T12:04:07.272Z,8.60
2022-09-04T12:09:19.422Z,8.70
2022-09-04T12:14:29.180Z,7.10
2022-09-04T12:19:30.699Z,6.80
2022-09-04T12:24:35.571Z,7.20
2022-09-04T12:29:41.260Z,6.20
2022-09-04T12:34:54.631Z,5.90
2022-09-04T12:40:10.016Z,6.60
2022-09-04T12:45:21.583Z,7.90
2022-09-04T12:50:29.743Z,8.50
2022-09-04T12:55:50.061Z,7.70
2022-09-04T13:00:59.928Z,5.70
2022-09-04T13:06:08.861Z,5.90
2022-09-04T13:11:17.320Z,5.90
2022-09-04T13:16:25.818Z,6.20
2022-09-04T13:21:30.900Z,6.50
2022-09-04T13:26:51.843Z,6.30
2022-09-04T13:32:03.748Z,5.70
2022-09-04T13:37:21.299Z,6.20
2022-09-04T13:42:29.044Z,6.20
2022-09-04T13:47:35.729Z,5.70
2022-09-04T13:52:52.126Z,5.20
2022-09-04T13:57:57.373Z,6.20
2022-09-04T14:03:02.104Z,6.30
2022-09-04T14:08:05.884Z,5.30
2022-09-04T14:13:25.647Z,6.00
2022-09-04T14:18:50.383Z,5.80
2022-09-04T14:24:03.627Z,5.20
2022-09-04T14:29:22.296Z,5.50
2022-09-04T14:34:42.917Z,4.70
2022-09-04T14:39:48.095Z,5.30
2022-09-04T14:45:09.599Z,5.40
2022-09-04T14:50:15.600Z,4.90
2022-09-04T14:55:23.884Z,6.10
2022-09-04T15:00:26.397Z,6.50
2022-09-04T15:05:37.058Z,6.30
2022-09-04T15:10:50.558Z,6.20
2022-09-04T15:15:54.566Z,6.50
2022-09-04T15:21:02.232Z,6.00
2022-09-04T15:26:10.724Z,5.30
2022-09-04T15:31:16.832Z,6.40
2022-09-04T15:36:22.623Z,5.90
2022-09-04T15:41:34.222Z,6.00
2022-09-04T15:46:38.673Z,5.60
2022-09-04T15:51:56.270Z,5.30
2022-09-04T15:57:01.224Z,5.70
2022-09-04T16:02:11.687Z,6.10
2022-09-04T16:12:25.160Z,7.10
2022-09-04T16:17:28.036Z,7.30
2022-09-04T16:22:44.625Z,7.70
2022-09-04T16:27:48.982Z,7.00
2022-09-04T16:32:50.775Z,8.50
2022-09-04T16:37:56.975Z,7.60
2022-09-04T16:43:01.328Z,18.00
2022-09-04T16:48:23.363Z,7.80
2022-09-04T16:53:34.642Z,7.40
2022-09-04T16:58:40.027Z,7.30
2022-09-04T17:04:13.187Z,7.20
2022-09-04T17:09:21.327Z,8.10
2022-09-04T17:14:32.118Z,6.90
2022-09-04T17:19:33.964Z,6.40
2022-09-04T17:28:58.239Z,7.50
2022-09-04T17:30:43.485Z,8.00
2022-09-04T17:40:38.948Z,9.40
2022-09-04T17:41:33.271Z,10.10
2022-09-04T17:46:51.048Z,11.60
2022-09-04T17:51:57.811Z,12.80
2022-09-04T17:57:19.866Z,13.30
2022-09-04T18:02:41.790Z,12.60
2022-09-04T18:08:12.887Z,12.80
2022-09-04T18:13:38.018Z,11.20
2022-09-04T18:18:43.673Z,11.50
2022-09-04T18:24:03.819Z,9.90
2022-09-04T18:29:56.886Z,9.20
2022-09-04T18:37:21.332Z,8.20
2022-09-04T18:40:12.419Z,9.70
2022-09-04T18:50:25.411Z,10.20
2022-09-04T18:51:18.693Z,12.10
2022-09-04T18:56:26.473Z,22.20
2022-09-04T19:01:28.226Z,23.80
2022-09-04T19:06:52.608Z,24.30
2022-09-04T19:12:01.679Z,28.80
2022-09-04T19:17:08.174Z,25.70
2022-09-04T19:22:18.671Z,22.30
2022-09-04T19:27:28.178Z,21.00
2022-09-04T19:32:33.966Z,19.60
2022-09-04T19:43:31.805Z,18.40
2022-09-04T19:46:09.469Z,19.40
2022-09-04T19:49:19.357Z,21.90
2022-09-04T19:54:12.224Z,23.10
2022-09-04T19:59:13.769Z,21.80
2022-09-04T20:04:34.292Z,23.80
2022-09-04T20:09:47.120Z,23.40
2022-09-04T20:15:13.864Z,20.30
2022-09-04T20:20:21.275Z,21.60
2022-09-04T20:25:26.225Z,21.60
2022-09-04T20:30:29.904Z,19.50
2022-09-04T20:35:38.250Z,19.50
2022-09-04T20:40:44.413Z,18.00
2022-09-04T20:49:35.209Z,15.70
2022-09-04T20:53:06.321Z,15.90
2022-09-04T21:00:01.348Z,14.50
2022-09-04T21:03:23.559Z,14.60
2022-09-04T21:07:49.377Z,14.40
2022-09-04T21:13:13.794Z,17.40
2022-09-04T21:18:18.208Z,16.40
2022-09-04T21:23:46.534Z,16.80
2022-09-04T21:29:10.544Z,16.00
2022-09-04T21:34:43.388Z,16.50
2022-09-04T21:40:04.146Z,16.80
2022-09-04T21:45:14.615Z,18.70
2022-09-04T21:50:16.422Z,23.40
2022-09-04T22:02:26.037Z,20.20
2022-09-04T22:02:37.303Z,18.90
2022-09-04T22:09:00.127Z,19.20
2022-09-04T22:13:42.731Z,17.50
2022-09-04T22:18:06.208Z,17.00
2022-09-04T22:23:26.518Z,17.40
2022-09-04T22:28:36.942Z,18.30
2022-09-04T22:34:14.918Z,17.10
2022-09-04T22:39:31.408Z,17.70
2022-09-04T22:44:59.379Z,18.00
2022-09-04T22:50:39.043Z,20.50
2022-09-04T22:56:23.543Z,18.40
2022-09-04T23:01:32.430Z,16.70
2022-09-04T23:11:05.649Z,19.30
2022-09-04T23:13:46.232Z,19.90
2022-09-04T23:21:12.223Z,19.70
2022-09-04T23:26:47.721Z,19.60
2022-09-04T23:29:21.351Z,19.80
2022-09-04T23:34:44.023Z,20.50
2022-09-04T23:40:10.359Z,21.40
2022-09-04T23:45:27.000Z,20.70
2022-09-04T23:50:31.843Z,18.50
2022-09-04T23:55:49.280Z,16.40
